»·PEaware :: N6977U KSNA-KPSP

N6977U :: KSNA-KPSP

FLIGHT INFORMATION

Flight Status: Arrived
Operator: Privately registered:
United States
More flights under this callsign
Pilot: Jeremy H. (10741)
Aircraft: CESSNA 310
(C310)
More flights by this aircraft type
Origin: KSNA John Wayne-Orange Co
United States
Destination: KPSP Palm Springs Intl
United States
More flights between these airports :: More routes between these airports
Route: SLI V64 TRM
File this flight plan on PilotEdge
Remarks:
Altitude:
(Current/Filed)
9,000ft
Speed:
(Current/Filed)
183kts
Departed: 24-Nov-23 04:56 PM
Arrived: 24-Nov-23 05:38 PM
Distance/Time
Traveled:
68nm/0:42
Distance/Time
To Go:
Arrived

Flight Plot

Page will automatically refresh every two minutes.


Map Options




Map Legend


Flown Route
Filed Route
Departure Airport
Arrival Airport
Navaid (VOR, NDB)
Fix

Horizontal Profiles

Position Reports

Time Latitude Longitude Heading Altitude Ground
Speed
24-Nov-23 16:43 33.667309 -117.872025 180 58ft 0kts
24-Nov-23 16:44 33.667309 -117.872025 180 58ft 0kts
24-Nov-23 16:45 33.667309 -117.872025 180 58ft 0kts
24-Nov-23 16:46 33.667309 -117.872025 180 58ft 0kts
24-Nov-23 16:47 33.667309 -117.872025 180 58ft 0kts
24-Nov-23 16:48 33.667309 -117.872025 180 58ft 0kts
24-Nov-23 16:49 33.667309 -117.872025 180 58ft 0kts
24-Nov-23 16:50 33.668766 -117.871313 41 58ft 19kts
24-Nov-23 16:51 33.673167 -117.867192 45 56ft 15kts
24-Nov-23 16:52 33.677002 -117.865288 28 52ft 22kts
24-Nov-23 16:53 33.679969 -117.863665 300 45ft 0kts
24-Nov-23 16:54 33.680173 -117.864102 293 45ft 6kts
24-Nov-23 16:55 33.667480 -117.873360 217 656ft 104kts
24-Nov-23 16:56 33.647522 -117.902863 229 1817ft 132kts
24-Nov-23 16:57 33.657896 -117.938369 325 3056ft 132kts
24-Nov-23 16:58 33.685966 -117.962336 320 4417ft 120kts
24-Nov-23 16:59 33.712007 -117.986994 322 5759ft 118kts
24-Nov-23 17:00 33.739007 -118.012565 321 6937ft 133kts
24-Nov-23 17:01 33.771298 -118.034138 14 7904ft 145kts
24-Nov-23 17:02 33.778460 -117.987097 91 8928ft 158kts
24-Nov-23 17:03 33.773883 -117.927499 91 8983ft 193kts
24-Nov-23 17:04 33.768844 -117.861086 92 9018ft 203kts
24-Nov-23 17:05 33.763664 -117.793088 92 9021ft 205kts
24-Nov-23 17:06 33.758431 -117.724884 92 9022ft 206kts
24-Nov-23 17:07 33.753079 -117.655522 92 9012ft 207kts
24-Nov-23 17:08 33.747740 -117.586798 92 9005ft 205kts
24-Nov-23 17:09 33.742349 -117.517876 92 9001ft 207kts
24-Nov-23 17:10 33.736908 -117.448831 92 9007ft 208kts
24-Nov-23 17:11 33.731451 -117.380248 92 9008ft 205kts
24-Nov-23 17:12 33.726116 -117.313705 92 9370ft 190kts
24-Nov-23 17:13 33.721214 -117.252381 91 10084ft 180kts
24-Nov-23 17:14 33.716460 -117.192780 91 10760ft 176kts
24-Nov-23 17:15 33.711563 -117.131760 91 11010ft 194kts
24-Nov-23 17:16 33.706050 -117.065543 91 11013ft 204kts
24-Nov-23 17:17 33.700374 -116.996942 92 11012ft 207kts
24-Nov-23 17:18 33.694644 -116.928058 92 11019ft 208kts
24-Nov-23 17:19 33.688872 -116.859195 92 11016ft 208kts
24-Nov-23 17:20 33.683058 -116.790201 93 11015ft 208kts
24-Nov-23 17:21 33.677151 -116.720926 93 10979ft 208kts
24-Nov-23 17:22 33.671302 -116.652420 93 11000ft 204kts
24-Nov-23 17:23 33.665504 -116.584456 93 10998ft 205kts
24-Nov-23 17:24 33.659604 -116.516548 93 10778ft 200kts
24-Nov-23 17:25 33.654084 -116.452924 94 10016ft 186kts
24-Nov-23 17:26 33.648716 -116.392249 94 9176ft 180kts
24-Nov-23 17:27 33.643447 -116.332821 94 8251ft 181kts
24-Nov-23 17:28 33.639151 -116.273685 79 7226ft 174kts
24-Nov-23 17:29 33.674804 -116.249376 338 6254ft 165kts
24-Nov-23 17:30 33.701256 -116.292849 296 5234ft 165kts
24-Nov-23 17:31 33.718548 -116.343924 289 4246ft 165kts
24-Nov-23 17:32 33.735843 -116.393778 303 3041ft 147kts
24-Nov-23 17:33 33.754743 -116.426280 304 1999ft 111kts
24-Nov-23 17:34 33.775653 -116.457722 317 1312ft 120kts
24-Nov-23 17:35 33.798034 -116.479720 322 989ft 90kts
24-Nov-23 17:36 33.817904 -116.497205 322 538ft 80kts
24-Nov-23 17:37 33.824332 -116.504230 175 418ft 0kts
24-Nov-23 17:38 33.823972 -116.504640 324 419ft 16kts
24-Nov-23 17:39 33.827689 -116.507954 324 429ft 17kts
24-Nov-23 17:40 33.828071 -116.511193 178 440ft 11kts
24-Nov-23 17:41 33.827877 -116.511189 178 440ft 0kts
24-Nov-23 17:42 33.827877 -116.511189 178 440ft 0kts

Navigation Log

Ident Type
Flight plan parsing failed, navigation log unavailable